createdAt,value
2018-12-20T00:00:15.991Z,6.87
2018-12-20T00:02:43.828Z,7.20
2018-12-20T00:05:11.873Z,7.28
2018-12-20T00:07:39.432Z,6.80
2018-12-20T00:10:06.837Z,7.27
2018-12-20T00:12:34.302Z,6.07
2018-12-20T00:15:01.847Z,6.40
2018-12-20T00:17:34.725Z,6.80
2018-12-20T00:20:02.335Z,6.37
2018-12-20T00:22:29.764Z,5.67
2018-12-20T00:24:57.107Z,6.23
2018-12-20T00:27:24.588Z,6.60
2018-12-20T00:29:52.065Z,6.72
2018-12-20T00:32:19.525Z,6.23
2018-12-20T00:34:47.088Z,6.43
2018-12-20T00:37:14.490Z,6.32
2018-12-20T00:39:41.960Z,5.77
2018-12-20T00:42:09.368Z,5.87
2018-12-20T00:44:37.535Z,5.77
2018-12-20T00:47:05.220Z,6.25
2018-12-20T00:49:32.963Z,5.53
2018-12-20T00:52:00.703Z,5.70
2018-12-20T00:54:28.150Z,5.83
2018-12-20T00:56:55.775Z,5.93
2018-12-20T00:59:23.376Z,6.73
2018-12-20T01:01:50.812Z,6.17
2018-12-20T01:04:18.318Z,6.47
2018-12-20T01:06:45.889Z,6.50
2018-12-20T01:09:13.366Z,6.25
2018-12-20T01:11:40.808Z,6.07
2018-12-20T01:14:09.357Z,6.30
2018-12-20T01:16:37.000Z,6.23
2018-12-20T01:19:05.243Z,6.13
2018-12-20T01:21:32.660Z,6.60
2018-12-20T01:24:00.106Z,6.10
2018-12-20T01:26:27.540Z,5.80
2018-12-20T01:28:55.098Z,6.27
2018-12-20T01:31:22.485Z,6.25
2018-12-20T01:33:49.887Z,6.40
2018-12-20T01:36:18.476Z,6.77
2018-12-20T01:38:45.973Z,5.93
2018-12-20T01:41:13.301Z,6.60
2018-12-20T01:43:40.756Z,6.23
2018-12-20T01:46:08.392Z,5.73
2018-12-20T01:48:36.478Z,5.87
2018-12-20T01:51:03.881Z,5.87
2018-12-20T01:53:31.361Z,5.83
2018-12-20T01:55:58.862Z,5.40
2018-12-20T01:58:26.312Z,5.60
2018-12-20T02:00:53.724Z,5.80
2018-12-20T02:03:21.262Z,5.68
2018-12-20T02:05:48.579Z,5.40
2018-12-20T02:08:16.029Z,5.33
2018-12-20T02:10:43.493Z,5.77
2018-12-20T02:13:11.064Z,5.62
2018-12-20T02:15:38.437Z,5.23
2018-12-20T02:18:05.873Z,5.07
2018-12-20T02:20:33.215Z,5.03
2018-12-20T02:23:00.658Z,5.40
2018-12-20T02:25:28.153Z,4.93
2018-12-20T02:27:55.606Z,5.13
2018-12-20T02:30:23.337Z,5.00
2018-12-20T02:32:50.573Z,5.10
2018-12-20T02:35:18.008Z,5.28
2018-12-20T02:37:45.634Z,5.40
2018-12-20T02:40:13.018Z,4.97
2018-12-20T02:42:40.323Z,5.77
2018-12-20T02:45:10.963Z,4.30
2018-12-20T02:47:35.157Z,5.30
2018-12-20T02:50:02.572Z,5.13
2018-12-20T02:52:30.198Z,5.10
2018-12-20T02:54:57.451Z,5.03
2018-12-20T02:57:24.923Z,5.57
2018-12-20T02:59:52.603Z,5.87
2018-12-20T03:02:19.926Z,5.23
2018-12-20T03:04:47.200Z,5.93
2018-12-20T03:07:14.650Z,6.12
2018-12-20T03:09:42.071Z,5.77
2018-12-20T03:12:09.747Z,5.97
2018-12-20T03:14:36.972Z,5.73
2018-12-20T03:17:05.172Z,6.50
2018-12-20T03:19:32.835Z,5.90
2018-12-20T03:22:00.100Z,5.87
2018-12-20T03:24:27.633Z,5.37
2018-12-20T03:26:55.151Z,6.27
2018-12-20T03:29:22.683Z,5.95
2018-12-20T03:31:51.058Z,5.97
2018-12-20T03:34:19.636Z,5.87
2018-12-20T03:36:47.255Z,6.55
2018-12-20T03:39:14.648Z,5.55
2018-12-20T03:41:41.959Z,5.77
2018-12-20T03:44:09.455Z,5.83
2018-12-20T03:46:36.864Z,5.87
2018-12-20T03:49:05.432Z,6.13
2018-12-20T03:51:32.705Z,6.03
2018-12-20T03:54:00.287Z,6.43
2018-12-20T03:56:27.825Z,6.13
2018-12-20T03:58:55.033Z,5.37
2018-12-20T04:01:22.471Z,5.65
2018-12-20T04:03:49.944Z,6.83
2018-12-20T04:06:17.349Z,6.77
2018-12-20T04:08:44.775Z,6.27
2018-12-20T04:11:12.200Z,5.90
2018-12-20T04:13:39.652Z,5.83
2018-12-20T04:16:07.072Z,6.10
2018-12-20T04:18:35.432Z,6.37
2018-12-20T04:21:03.157Z,6.00
2018-12-20T04:23:30.378Z,6.13
2018-12-20T04:25:57.982Z,5.50
2018-12-20T04:28:25.257Z,6.40
2018-12-20T04:30:52.712Z,5.13
2018-12-20T04:33:20.156Z,6.12
2018-12-20T04:35:47.629Z,6.20
2018-12-20T04:38:15.272Z,5.93
2018-12-20T04:40:42.720Z,5.90
2018-12-20T04:43:10.086Z,5.68
2018-12-20T04:45:37.430Z,5.60
2018-12-20T04:48:04.853Z,6.03
2018-12-20T04:50:32.476Z,6.10
2018-12-20T04:52:59.747Z,5.33
2018-12-20T04:55:27.189Z,5.77
2018-12-20T04:57:54.619Z,5.13
2018-12-20T05:00:22.061Z,5.57
2018-12-20T05:02:49.474Z,6.37
2018-12-20T05:05:16.971Z,5.45
2018-12-20T05:07:44.411Z,5.13
2018-12-20T05:10:11.843Z,4.73
2018-12-20T05:12:39.415Z,5.07
2018-12-20T05:15:06.817Z,5.13
2018-12-20T05:17:34.181Z,5.90
2018-12-20T05:20:01.867Z,5.27
2018-12-20T05:22:29.189Z,5.87
2018-12-20T05:24:57.380Z,5.30
2018-12-20T05:27:24.981Z,5.03
2018-12-20T05:29:52.356Z,5.20
2018-12-20T05:32:20.001Z,5.50
2018-12-20T05:34:47.366Z,5.50
2018-12-20T05:37:14.676Z,5.57
2018-12-20T05:39:42.101Z,5.50
2018-12-20T05:42:09.754Z,4.83
2018-12-20T05:44:37.184Z,5.07
2018-12-20T05:47:05.178Z,5.43
2018-12-20T05:49:32.614Z,5.23
2018-12-20T05:52:00.062Z,4.85
2018-12-20T05:54:27.513Z,4.23
2018-12-20T05:56:54.977Z,3.53
2018-12-20T05:59:22.360Z,3.35
2018-12-20T06:01:49.788Z,3.17
2018-12-20T06:04:17.220Z,3.20
2018-12-20T06:06:44.786Z,3.30
2018-12-20T06:09:12.117Z,3.55
2018-12-20T06:11:39.842Z,2.73
2018-12-20T06:14:07.037Z,2.20
2018-12-20T06:16:34.428Z,2.77
2018-12-20T06:19:01.900Z,2.70
2018-12-20T06:21:29.355Z,2.00
2018-12-20T06:23:56.796Z,2.50
2018-12-20T06:26:24.229Z,2.40
2018-12-20T06:28:51.640Z,2.30
2018-12-20T06:31:19.065Z,2.10
2018-12-20T06:33:46.475Z,2.20
2018-12-20T06:36:13.905Z,2.40
2018-12-20T06:38:41.314Z,2.60
2018-12-20T06:41:08.776Z,2.63
2018-12-20T06:43:36.265Z,3.37
2018-12-20T06:46:03.705Z,2.80
2018-12-20T06:48:31.140Z,3.22
2018-12-20T06:50:58.623Z,3.20
2018-12-20T06:53:26.064Z,3.35
2018-12-20T06:55:53.519Z,3.97
2018-12-20T06:58:21.866Z,3.57
2018-12-20T07:00:49.368Z,3.57
2018-12-20T07:03:16.826Z,3.72
2018-12-20T07:05:44.259Z,4.00
2018-12-20T07:08:11.690Z,3.60
2018-12-20T07:10:39.125Z,3.53
2018-12-20T07:13:06.540Z,3.50
2018-12-20T07:15:33.977Z,3.53
2018-12-20T07:18:01.419Z,3.57
2018-12-20T07:20:28.865Z,3.80
2018-12-20T07:22:56.297Z,3.40
2018-12-20T07:25:23.718Z,3.60
2018-12-20T07:27:51.141Z,3.47
2018-12-20T07:30:18.569Z,4.03
2018-12-20T07:32:46.008Z,3.47
2018-12-20T07:35:13.431Z,4.00
2018-12-20T07:37:40.857Z,3.80
2018-12-20T07:40:08.275Z,3.80
2018-12-20T07:42:35.707Z,3.63
2018-12-20T07:45:03.129Z,3.47
2018-12-20T07:47:31.976Z,3.50
2018-12-20T07:49:59.487Z,3.20
2018-12-20T07:52:26.956Z,2.93
2018-12-20T07:54:54.373Z,3.20
2018-12-20T07:57:21.832Z,3.15
2018-12-20T07:59:49.289Z,2.90
2018-12-20T08:02:16.750Z,2.93
2018-12-20T08:04:44.239Z,2.47
2018-12-20T08:07:11.662Z,2.70
2018-12-20T08:09:40.989Z,2.97
2018-12-20T08:12:08.404Z,2.90
2018-12-20T08:14:35.832Z,2.60
2018-12-20T08:17:03.277Z,2.67
2018-12-20T08:19:36.187Z,2.37
2018-12-20T08:21:58.231Z,2.60
2018-12-20T08:24:25.663Z,2.37
2018-12-20T08:26:53.111Z,2.37
2018-12-20T08:29:20.549Z,2.22
2018-12-20T08:31:48.013Z,2.67
2018-12-20T08:34:15.437Z,3.00
2018-12-20T08:36:42.962Z,2.73
2018-12-20T08:39:10.405Z,2.60
2018-12-20T08:41:37.823Z,2.63
2018-12-20T08:44:05.264Z,2.70
2018-12-20T08:46:33.969Z,2.63
2018-12-20T08:49:01.468Z,2.43
2018-12-20T08:51:28.879Z,2.57
2018-12-20T08:53:56.314Z,2.23
2018-12-20T08:56:23.726Z,2.77
2018-12-20T08:58:51.143Z,2.50
2018-12-20T09:01:18.577Z,2.35
2018-12-20T09:03:45.984Z,2.50
2018-12-20T09:06:13.413Z,2.20
2018-12-20T09:08:40.829Z,1.87
2018-12-20T09:11:08.257Z,2.30
2018-12-20T09:13:35.709Z,2.07
2018-12-20T09:16:03.458Z,2.25
2018-12-20T09:18:30.892Z,2.20
2018-12-20T09:20:58.317Z,2.40
2018-12-20T09:23:25.758Z,2.20
2018-12-20T09:25:53.164Z,2.20
2018-12-20T09:28:20.618Z,2.00
2018-12-20T09:30:48.808Z,2.40
2018-12-20T09:33:17.284Z,2.60
2018-12-20T09:35:45.255Z,2.50
2018-12-20T09:38:12.781Z,2.53
2018-12-20T09:40:40.271Z,2.50
2018-12-20T09:43:07.690Z,2.30
2018-12-20T09:45:35.188Z,2.53
2018-12-20T09:48:05.361Z,2.23
2018-12-20T09:50:33.956Z,2.47
2018-12-20T09:53:01.391Z,2.70
2018-12-20T09:55:28.828Z,2.50
2018-12-20T09:57:56.260Z,2.50
2018-12-20T10:00:23.689Z,2.40
2018-12-20T10:02:51.095Z,2.40
2018-12-20T10:05:18.569Z,2.30
2018-12-20T10:07:46.003Z,3.20
2018-12-20T10:10:13.445Z,2.47
2018-12-20T10:12:40.875Z,2.40
2018-12-20T10:15:08.321Z,2.00
2018-12-20T10:17:35.751Z,1.87
2018-12-20T10:20:03.209Z,1.87
2018-12-20T10:22:30.638Z,2.00
2018-12-20T10:24:58.081Z,1.90
2018-12-20T10:27:31.428Z,2.00
2018-12-20T10:29:52.969Z,2.10
2018-12-20T10:32:20.387Z,1.80
2018-12-20T10:34:47.897Z,2.10
2018-12-20T10:37:15.271Z,1.92
2018-12-20T10:39:42.708Z,1.73
2018-12-20T10:42:10.146Z,1.87
2018-12-20T10:44:37.577Z,2.00
2018-12-20T10:47:10.694Z,1.83
2018-12-20T10:49:38.127Z,1.90
2018-12-20T10:52:05.588Z,1.70
2018-12-20T10:54:33.057Z,2.13
2018-12-20T10:57:00.459Z,1.70
2018-12-20T10:59:27.887Z,1.50
2018-12-20T11:02:10.223Z,1.60
2018-12-20T11:04:43.315Z,1.63
2018-12-20T11:07:16.417Z,1.83
2018-12-20T11:09:49.460Z,1.60
2018-12-20T11:12:31.822Z,1.50
2018-12-20T11:14:59.228Z,1.40
2018-12-20T11:17:26.691Z,1.93
2018-12-20T11:19:54.124Z,1.92
2018-12-20T11:22:21.761Z,1.50
2018-12-20T11:24:49.196Z,1.80
2018-12-20T11:27:16.832Z,1.67
2018-12-20T11:29:44.423Z,1.50
2018-12-20T11:32:11.916Z,1.57
2018-12-20T11:34:39.320Z,1.40
2018-12-20T11:37:06.762Z,1.47
2018-12-20T11:39:34.185Z,1.50
2018-12-20T11:42:01.673Z,1.70
2018-12-20T11:44:29.104Z,1.70
2018-12-20T11:46:56.530Z,1.77
2018-12-20T11:49:23.958Z,1.50
2018-12-20T11:51:51.436Z,2.00
2018-12-20T11:54:18.893Z,1.60
2018-12-20T11:56:46.317Z,1.80
2018-12-20T11:59:13.761Z,1.52
2018-12-20T12:01:41.200Z,1.73
2018-12-20T12:04:08.650Z,1.53
2018-12-20T12:06:36.136Z,1.90
2018-12-20T12:09:03.571Z,1.80
2018-12-20T12:11:31.030Z,1.80
2018-12-20T12:13:58.453Z,1.90
2018-12-20T12:16:25.885Z,1.80
2018-12-20T12:18:53.318Z,1.63
2018-12-20T12:21:21.733Z,1.97
2018-12-20T12:23:49.224Z,1.70
2018-12-20T12:26:16.681Z,2.13
2018-12-20T12:28:44.111Z,1.80
2018-12-20T12:31:11.566Z,1.90
2018-12-20T12:33:39.000Z,1.50
2018-12-20T12:36:06.448Z,1.80
2018-12-20T12:38:33.852Z,2.00
2018-12-20T12:41:01.312Z,1.90
2018-12-20T12:43:28.733Z,2.00
2018-12-20T12:45:56.218Z,2.00
2018-12-20T12:48:23.654Z,1.90
2018-12-20T12:50:51.062Z,1.97
2018-12-20T12:53:18.514Z,2.08
2018-12-20T12:55:46.209Z,1.80
2018-12-20T12:58:13.634Z,2.00
2018-12-20T13:00:41.065Z,2.10
2018-12-20T13:03:08.520Z,1.93
2018-12-20T13:05:35.964Z,1.90
2018-12-20T13:08:03.404Z,1.73
2018-12-20T13:10:30.881Z,1.80
2018-12-20T13:12:58.299Z,1.90
2018-12-20T13:15:25.740Z,1.70
2018-12-20T13:17:53.178Z,1.90
2018-12-20T13:20:20.599Z,1.60
2018-12-20T13:22:48.037Z,2.20
2018-12-20T13:25:15.439Z,1.73
2018-12-20T13:27:42.877Z,1.50
2018-12-20T13:30:11.426Z,1.75
2018-12-20T13:32:38.842Z,1.83
2018-12-20T13:35:06.283Z,1.90
2018-12-20T13:37:33.745Z,1.80
2018-12-20T13:40:01.197Z,1.90
2018-12-20T13:42:28.628Z,2.00
2018-12-20T13:44:56.051Z,1.90
2018-12-20T13:47:23.494Z,1.90
2018-12-20T13:49:50.919Z,2.00
2018-12-20T13:52:18.373Z,1.87
2018-12-20T13:54:45.789Z,2.00
2018-12-20T13:57:13.259Z,1.75
2018-12-20T13:59:40.681Z,1.73
2018-12-20T14:02:08.359Z,2.33
2018-12-20T14:04:37.572Z,1.90
2018-12-20T14:07:06.289Z,2.93
2018-12-20T14:09:34.364Z,2.37
2018-12-20T14:12:01.803Z,2.13
2018-12-20T14:14:29.221Z,1.83
2018-12-20T14:16:56.631Z,2.10
2018-12-20T14:19:24.081Z,2.20
2018-12-20T14:21:51.488Z,1.83
2018-12-20T14:24:18.938Z,1.83
2018-12-20T14:26:46.367Z,1.50
2018-12-20T14:29:13.858Z,2.28
2018-12-20T14:31:41.282Z,2.08
2018-12-20T14:34:08.753Z,1.87
2018-12-20T14:36:36.197Z,2.17
2018-12-20T14:39:03.642Z,2.30
2018-12-20T14:41:31.098Z,1.83
2018-12-20T14:43:58.535Z,1.83
2018-12-20T14:46:25.936Z,2.37
2018-12-20T14:48:53.389Z,3.70
2018-12-20T14:51:20.828Z,1.70
2018-12-20T14:53:49.166Z,2.78
2018-12-20T14:56:16.705Z,2.53
2018-12-20T14:58:44.166Z,1.90
2018-12-20T15:01:11.615Z,1.67
2018-12-20T15:03:39.047Z,2.40
2018-12-20T15:06:06.483Z,2.37
2018-12-20T15:08:33.903Z,1.90
2018-12-20T15:11:01.371Z,2.20
2018-12-20T15:13:28.811Z,2.00
2018-12-20T15:15:57.500Z,1.60
2018-12-20T15:18:25.042Z,2.17
2018-12-20T15:20:52.475Z,1.80
2018-12-20T15:23:19.910Z,2.00
2018-12-20T15:25:47.359Z,2.07
2018-12-20T15:28:14.810Z,1.73
2018-12-20T15:30:42.206Z,2.47
2018-12-20T15:33:09.648Z,2.20
2018-12-20T15:35:37.097Z,2.00
2018-12-20T15:38:04.551Z,2.30
2018-12-20T15:40:31.991Z,2.50
2018-12-20T15:42:59.407Z,2.10
2018-12-20T15:45:26.874Z,2.20
2018-12-20T15:47:54.311Z,2.30
2018-12-20T15:50:22.914Z,2.10
2018-12-20T15:52:50.436Z,2.83
2018-12-20T15:55:17.796Z,2.62
2018-12-20T15:57:45.248Z,2.50
2018-12-20T16:00:12.681Z,2.63
2018-12-20T16:02:40.214Z,2.80
2018-12-20T16:05:07.581Z,3.00
2018-12-20T16:07:35.049Z,2.93
2018-12-20T16:10:02.497Z,3.73
2018-12-20T16:12:30.763Z,2.97
2018-12-20T16:14:58.424Z,3.37
2018-12-20T16:17:25.873Z,3.00
2018-12-20T16:19:53.313Z,2.77
2018-12-20T16:22:20.810Z,3.00
2018-12-20T16:24:48.309Z,3.10
2018-12-20T16:27:15.753Z,3.22
2018-12-20T16:29:43.210Z,3.13
2018-12-20T16:32:10.661Z,3.43
2018-12-20T16:34:38.119Z,3.97
2018-12-20T16:37:05.558Z,2.93
2018-12-20T16:39:32.998Z,2.73
2018-12-20T16:42:00.443Z,2.70
2018-12-20T16:44:27.868Z,2.70
2018-12-20T16:46:55.288Z,3.05
2018-12-20T16:49:22.739Z,3.05
2018-12-20T16:51:50.171Z,3.03
2018-12-20T16:54:17.610Z,2.90
2018-12-20T16:56:45.086Z,3.20
2018-12-20T16:59:12.526Z,2.37
2018-12-20T17:01:39.955Z,3.30
2018-12-20T17:04:07.419Z,3.40
2018-12-20T17:06:34.852Z,3.10
2018-12-20T17:09:03.376Z,3.17
2018-12-20T17:11:30.889Z,3.40
2018-12-20T17:13:58.342Z,2.50
2018-12-20T17:16:25.788Z,3.63
2018-12-20T17:18:53.259Z,4.00
2018-12-20T17:21:20.697Z,4.53
2018-12-20T17:23:48.141Z,3.30
2018-12-20T17:26:15.602Z,4.17
2018-12-20T17:28:43.034Z,3.20
2018-12-20T17:31:10.487Z,2.97
2018-12-20T17:33:37.938Z,3.17
2018-12-20T17:36:05.400Z,3.30
2018-12-20T17:38:32.818Z,3.13
2018-12-20T17:41:00.291Z,3.77
2018-12-20T17:43:27.743Z,2.97
2018-12-20T17:45:55.177Z,3.30
2018-12-20T17:48:29.061Z,4.00
2018-12-20T17:50:50.074Z,3.60
2018-12-20T17:53:17.569Z,4.00
2018-12-20T17:55:45.440Z,3.87
2018-12-20T17:58:12.904Z,4.07
2018-12-20T18:00:40.470Z,4.60
2018-12-20T18:03:07.946Z,3.30
2018-12-20T18:05:35.356Z,4.20
2018-12-20T18:08:02.779Z,5.07
2018-12-20T18:10:30.259Z,4.87
2018-12-20T18:12:57.719Z,5.20
2018-12-20T18:15:25.143Z,4.73
2018-12-20T18:17:52.614Z,3.90
2018-12-20T18:20:20.035Z,4.03
2018-12-20T18:22:47.607Z,4.63
2018-12-20T18:25:15.018Z,4.57
2018-12-20T18:27:42.481Z,11.67
2018-12-20T18:30:11.267Z,5.83
2018-12-20T18:32:38.702Z,4.97
2018-12-20T18:35:06.179Z,6.87
2018-12-20T18:37:33.629Z,5.67
2018-12-20T18:40:01.203Z,5.33
2018-12-20T18:42:28.694Z,5.03
2018-12-20T18:44:56.120Z,5.10
2018-12-20T18:47:23.545Z,4.80
2018-12-20T18:49:50.959Z,5.17
2018-12-20T18:52:18.821Z,4.93
2018-12-20T18:54:46.279Z,6.70
2018-12-20T18:57:13.698Z,5.68
2018-12-20T18:59:41.160Z,4.80
2018-12-20T19:02:08.570Z,4.93
2018-12-20T19:04:36.008Z,4.73
2018-12-20T19:07:03.441Z,5.35
2018-12-20T19:09:30.904Z,5.20
2018-12-20T19:11:58.330Z,4.40
2018-12-20T19:14:25.795Z,4.70
2018-12-20T19:16:53.199Z,3.43
2018-12-20T19:19:20.631Z,4.72
2018-12-20T19:21:48.085Z,4.07
2018-12-20T19:24:15.521Z,4.03
2018-12-20T19:26:42.949Z,3.97
2018-12-20T19:29:10.389Z,4.40
2018-12-20T19:31:37.817Z,4.10
2018-12-20T19:34:05.314Z,3.77
2018-12-20T19:36:32.731Z,4.00
2018-12-20T19:39:00.167Z,4.40
2018-12-20T19:41:27.606Z,5.07
2018-12-20T19:43:55.061Z,4.33
2018-12-20T19:46:22.506Z,4.40
2018-12-20T19:48:50.057Z,4.43
2018-12-20T19:51:17.503Z,4.62
2018-12-20T19:53:44.958Z,4.60
2018-12-20T19:56:12.453Z,4.20
2018-12-20T19:58:39.889Z,5.07
2018-12-20T20:01:07.333Z,4.53
2018-12-20T20:03:34.799Z,4.93
2018-12-20T20:06:02.273Z,4.77
2018-12-20T20:08:29.704Z,4.90
2018-12-20T20:10:58.115Z,5.57
2018-12-20T20:13:30.683Z,5.07
2018-12-20T20:15:53.056Z,4.80
2018-12-20T20:18:20.485Z,4.77
2018-12-20T20:20:47.927Z,4.90
2018-12-20T20:23:15.373Z,4.95
2018-12-20T20:25:42.910Z,5.50
2018-12-20T20:28:10.358Z,5.12
2018-12-20T20:30:37.772Z,5.03
2018-12-20T20:33:05.477Z,4.50
2018-12-20T20:35:33.063Z,4.70
2018-12-20T20:38:00.367Z,4.70
2018-12-20T20:40:27.811Z,4.37
2018-12-20T20:42:55.245Z,4.70
2018-12-20T20:45:22.706Z,4.00
2018-12-20T20:47:50.122Z,4.57
2018-12-20T20:50:22.198Z,3.20
2018-12-20T20:52:45.025Z,4.30
2018-12-20T20:55:12.494Z,4.68
2018-12-20T20:57:39.911Z,3.70
2018-12-20T21:00:07.351Z,4.05
2018-12-20T21:02:34.789Z,3.90
2018-12-20T21:05:02.232Z,3.77
2018-12-20T21:07:29.668Z,4.10
2018-12-20T21:09:57.926Z,4.10
2018-12-20T21:12:25.356Z,3.80
2018-12-20T21:14:52.880Z,3.73
2018-12-20T21:17:20.279Z,2.67
2018-12-20T21:19:47.710Z,4.53
2018-12-20T21:22:15.150Z,2.73
2018-12-20T21:24:42.568Z,4.23
2018-12-20T21:27:10.019Z,4.23
2018-12-20T21:29:37.537Z,4.10
2018-12-20T21:32:04.986Z,3.23
2018-12-20T21:34:32.429Z,4.27
2018-12-20T21:36:59.873Z,4.63
2018-12-20T21:39:27.295Z,4.12
2018-12-20T21:41:54.765Z,4.03
2018-12-20T21:44:22.204Z,3.30
2018-12-20T21:46:49.641Z,3.30
2018-12-20T21:49:17.079Z,3.40
2018-12-20T21:51:44.529Z,3.50
2018-12-20T21:54:11.976Z,2.87
2018-12-20T21:56:39.420Z,3.67
2018-12-20T21:59:06.867Z,3.30
2018-12-20T22:01:34.330Z,2.90
2018-12-20T22:04:01.818Z,3.73
2018-12-20T22:06:29.373Z,3.57
2018-12-20T22:08:56.849Z,3.80
2018-12-20T22:11:24.282Z,3.90
2018-12-20T22:13:51.715Z,3.93
2018-12-20T22:16:19.169Z,4.47
2018-12-20T22:18:46.594Z,4.30
2018-12-20T22:21:14.025Z,3.80
2018-12-20T22:23:41.447Z,4.00
2018-12-20T22:26:08.924Z,3.90
2018-12-20T22:28:36.375Z,4.10
2018-12-20T22:31:03.815Z,4.10
2018-12-20T22:33:31.259Z,3.53
2018-12-20T22:35:58.703Z,3.57
2018-12-20T22:38:26.155Z,4.37
2018-12-20T22:40:53.594Z,3.37
2018-12-20T22:43:21.038Z,3.60
2018-12-20T22:45:48.476Z,3.80
2018-12-20T22:48:15.879Z,3.83
2018-12-20T22:50:43.310Z,3.30
2018-12-20T22:53:10.729Z,3.80
2018-12-20T22:55:38.164Z,3.20
2018-12-20T22:58:05.601Z,3.57
2018-12-20T23:00:33.076Z,3.27
2018-12-20T23:03:00.546Z,3.20
2018-12-20T23:05:28.035Z,3.00
2018-12-20T23:07:55.457Z,2.83
2018-12-20T23:10:23.322Z,3.00
2018-12-20T23:12:50.753Z,2.67
2018-12-20T23:15:18.196Z,3.15
2018-12-20T23:17:45.646Z,2.80
2018-12-20T23:20:13.110Z,3.10
2018-12-20T23:22:40.573Z,2.43
2018-12-20T23:25:08.011Z,2.73
2018-12-20T23:27:35.442Z,3.20
2018-12-20T23:30:02.890Z,3.00
2018-12-20T23:32:30.318Z,2.60
2018-12-20T23:34:57.755Z,2.90
2018-12-20T23:37:25.218Z,2.80
2018-12-20T23:39:52.657Z,2.83
2018-12-20T23:42:20.089Z,2.50
2018-12-20T23:44:47.546Z,2.87
2018-12-20T23:47:15.003Z,3.00
2018-12-20T23:49:42.426Z,2.30
2018-12-20T23:52:09.885Z,3.20
2018-12-20T23:54:37.307Z,3.00
2018-12-20T23:57:05.530Z,2.83
2018-12-20T23:59:32.996Z,2.10
